sensor_id;sensor_type;location;lat;lon;timestamp;temperature;humidity
13416;DHT22;6779;50.150;8.680;2022-08-19T00:01:21;22.00;1.00
13416;DHT22;6779;50.150;8.680;2022-08-19T00:03:48;22.00;1.00
13416;DHT22;6779;50.150;8.680;2022-08-19T00:06:15;21.90;1.00
13416;DHT22;6779;50.150;8.680;2022-08-19T00:08:40;22.00;1.00
13416;DHT22;6779;50.150;8.680;2022-08-19T00:11:06;22.00;1.00
13416;DHT22;6779;50.150;8.680;2022-08-19T00:13:33;21.90;1.00
13416;DHT22;6779;50.150;8.680;2022-08-19T00:15:59;21.90;1.00
13416;DHT22;6779;50.150;8.680;2022-08-19T00:18:25;21.90;1.00
13416;DHT22;6779;50.150;8.680;2022-08-19T00:20:51;21.90;1.00
13416;DHT22;6779;50.150;8.680;2022-08-19T00:23:17;22.00;1.00
13416;DHT22;6779;50.150;8.680;2022-08-19T00:25:42;22.00;1.00
13416;DHT22;6779;50.150;8.680;2022-08-19T00:28:08;22.00;1.00
13416;DHT22;6779;50.150;8.680;2022-08-19T00:30:33;22.00;1.00
13416;DHT22;6779;50.150;8.680;2022-08-19T00:32:59;22.00;1.00
13416;DHT22;6779;50.150;8.680;2022-08-19T00:35:25;22.00;1.00
13416;DHT22;6779;50.150;8.680;2022-08-19T00:37:53;22.00;1.00
13416;DHT22;6779;50.150;8.680;2022-08-19T00:40:19;22.00;1.00
13416;DHT22;6779;50.150;8.680;2022-08-19T00:42:45;21.90;1.00
13416;DHT22;6779;50.150;8.680;2022-08-19T00:45:15;21.90;1.00
13416;DHT22;6779;50.150;8.680;2022-08-19T00:47:42;22.00;1.00
13416;DHT22;6779;50.150;8.680;2022-08-19T00:50:09;21.90;1.00
13416;DHT22;6779;50.150;8.680;2022-08-19T00:52:38;21.90;1.00
13416;DHT22;6779;50.150;8.680;2022-08-19T00:55:08;21.90;1.00
13416;DHT22;6779;50.150;8.680;2022-08-19T00:57:40;21.80;1.00
13416;DHT22;6779;50.150;8.680;2022-08-19T01:00:14;21.80;1.00
13416;DHT22;6779;50.150;8.680;2022-08-19T01:02:41;21.90;1.00
13416;DHT22;6779;50.150;8.680;2022-08-19T01:05:14;22.00;1.00
13416;DHT22;6779;50.150;8.680;2022-08-19T01:07:41;22.00;1.00
13416;DHT22;6779;50.150;8.680;2022-08-19T01:10:10;21.90;1.00
13416;DHT22;6779;50.150;8.680;2022-08-19T01:12:37;21.90;1.00
13416;DHT22;6779;50.150;8.680;2022-08-19T01:15:05;21.90;1.00
13416;DHT22;6779;50.150;8.680;2022-08-19T01:17:33;22.00;1.00
13416;DHT22;6779;50.150;8.680;2022-08-19T01:19:59;22.00;1.00
13416;DHT22;6779;50.150;8.680;2022-08-19T01:22:34;22.00;1.00
13416;DHT22;6779;50.150;8.680;2022-08-19T01:25:03;22.00;1.00
13416;DHT22;6779;50.150;8.680;2022-08-19T01:27:40;21.90;1.00
13416;DHT22;6779;50.150;8.680;2022-08-19T01:30:07;21.90;1.00
13416;DHT22;6779;50.150;8.680;2022-08-19T01:32:32;22.10;1.00
13416;DHT22;6779;50.150;8.680;2022-08-19T01:34:58;22.00;1.00
13416;DHT22;6779;50.150;8.680;2022-08-19T01:37:26;22.00;1.00
13416;DHT22;6779;50.150;8.680;2022-08-19T01:39:52;22.00;1.00
13416;DHT22;6779;50.150;8.680;2022-08-19T01:42:18;22.00;1.00
13416;DHT22;6779;50.150;8.680;2022-08-19T01:44:45;22.00;1.00
13416;DHT22;6779;50.150;8.680;2022-08-19T01:47:10;22.00;1.00
13416;DHT22;6779;50.150;8.680;2022-08-19T01:49:37;22.00;1.00
13416;DHT22;6779;50.150;8.680;2022-08-19T01:52:04;22.00;1.00
13416;DHT22;6779;50.150;8.680;2022-08-19T01:54:30;22.00;1.00
13416;DHT22;6779;50.150;8.680;2022-08-19T01:57:09;22.00;1.00
13416;DHT22;6779;50.150;8.680;2022-08-19T01:59:36;22.00;1.00
13416;DHT22;6779;50.150;8.680;2022-08-19T02:02:03;22.00;1.00
13416;DHT22;6779;50.150;8.680;2022-08-19T02:04:32;21.90;1.00
13416;DHT22;6779;50.150;8.680;2022-08-19T02:06:58;21.90;1.00
13416;DHT22;6779;50.150;8.680;2022-08-19T02:09:23;21.90;1.00
13416;DHT22;6779;50.150;8.680;2022-08-19T02:11:49;21.80;1.00
13416;DHT22;6779;50.150;8.680;2022-08-19T02:14:14;21.80;1.00
13416;DHT22;6779;50.150;8.680;2022-08-19T02:16:40;21.80;1.00
13416;DHT22;6779;50.150;8.680;2022-08-19T02:19:06;21.80;1.00
13416;DHT22;6779;50.150;8.680;2022-08-19T02:21:32;21.70;1.00
13416;DHT22;6779;50.150;8.680;2022-08-19T02:23:58;21.70;1.00
13416;DHT22;6779;50.150;8.680;2022-08-19T02:26:24;21.70;1.00
13416;DHT22;6779;50.150;8.680;2022-08-19T02:28:52;21.70;1.00
13416;DHT22;6779;50.150;8.680;2022-08-19T02:31:20;21.80;1.00
13416;DHT22;6779;50.150;8.680;2022-08-19T02:33:46;21.80;1.00
13416;DHT22;6779;50.150;8.680;2022-08-19T02:36:13;21.80;1.00
13416;DHT22;6779;50.150;8.680;2022-08-19T02:38:39;21.80;1.00
13416;DHT22;6779;50.150;8.680;2022-08-19T02:41:33;21.70;1.00
13416;DHT22;6779;50.150;8.680;2022-08-19T02:43:59;21.80;1.00
13416;DHT22;6779;50.150;8.680;2022-08-19T02:46:28;21.80;1.00
13416;DHT22;6779;50.150;8.680;2022-08-19T02:48:58;21.80;1.00
13416;DHT22;6779;50.150;8.680;2022-08-19T02:51:27;21.70;1.00
13416;DHT22;6779;50.150;8.680;2022-08-19T02:53:53;21.70;1.00
13416;DHT22;6779;50.150;8.680;2022-08-19T02:56:19;21.70;1.00
13416;DHT22;6779;50.150;8.680;2022-08-19T02:58:45;21.70;1.00
13416;DHT22;6779;50.150;8.680;2022-08-19T03:01:11;21.70;1.00
13416;DHT22;6779;50.150;8.680;2022-08-19T03:03:37;21.70;1.00
13416;DHT22;6779;50.150;8.680;2022-08-19T03:06:12;21.70;1.00
13416;DHT22;6779;50.150;8.680;2022-08-19T03:08:40;21.60;1.00
13416;DHT22;6779;50.150;8.680;2022-08-19T03:11:10;21.60;1.00
13416;DHT22;6779;50.150;8.680;2022-08-19T03:13:37;21.60;1.00
13416;DHT22;6779;50.150;8.680;2022-08-19T03:16:04;21.50;1.00
13416;DHT22;6779;50.150;8.680;2022-08-19T03:18:30;21.60;1.00
13416;DHT22;6779;50.150;8.680;2022-08-19T03:20:56;21.60;1.00
13416;DHT22;6779;50.150;8.680;2022-08-19T03:23:23;21.50;1.00
13416;DHT22;6779;50.150;8.680;2022-08-19T03:25:50;21.40;1.00
13416;DHT22;6779;50.150;8.680;2022-08-19T03:28:16;21.40;20.50
13416;DHT22;6779;50.150;8.680;2022-08-19T03:30:54;21.40;18.50
13416;DHT22;6779;50.150;8.680;2022-08-19T03:33:21;21.40;20.40
13416;DHT22;6779;50.150;8.680;2022-08-19T03:35:58;21.30;44.10
13416;DHT22;6779;50.150;8.680;2022-08-19T03:38:24;21.30;63.70
13416;DHT22;6779;50.150;8.680;2022-08-19T03:40:49;21.30;75.20
13416;DHT22;6779;50.150;8.680;2022-08-19T03:43:15;21.30;86.10
13416;DHT22;6779;50.150;8.680;2022-08-19T03:45:43;21.30;62.00
13416;DHT22;6779;50.150;8.680;2022-08-19T03:48:08;21.40;54.60
13416;DHT22;6779;50.150;8.680;2022-08-19T03:50:39;21.40;36.10
13416;DHT22;6779;50.150;8.680;2022-08-19T03:53:05;21.40;29.30
13416;DHT22;6779;50.150;8.680;2022-08-19T03:55:31;21.40;32.20
13416;DHT22;6779;50.150;8.680;2022-08-19T03:57:57;21.30;33.10
13416;DHT22;6779;50.150;8.680;2022-08-19T04:00:22;21.30;54.00
13416;DHT22;6779;50.150;8.680;2022-08-19T04:02:48;21.30;57.50
13416;DHT22;6779;50.150;8.680;2022-08-19T04:05:13;21.20;93.70
13416;DHT22;6779;50.150;8.680;2022-08-19T04:07:40;21.20;82.80
13416;DHT22;6779;50.150;8.680;2022-08-19T04:10:06;21.20;69.60
13416;DHT22;6779;50.150;8.680;2022-08-19T04:12:32;21.10;81.30
13416;DHT22;6779;50.150;8.680;2022-08-19T04:14:58;21.10;98.40
13416;DHT22;6779;50.150;8.680;2022-08-19T04:17:23;21.10;99.90
13416;DHT22;6779;50.150;8.680;2022-08-19T04:19:49;21.10;99.90
13416;DHT22;6779;50.150;8.680;2022-08-19T04:22:15;21.10;99.90
13416;DHT22;6779;50.150;8.680;2022-08-19T04:24:40;21.10;99.90
13416;DHT22;6779;50.150;8.680;2022-08-19T04:27:06;21.00;99.90
13416;DHT22;6779;50.150;8.680;2022-08-19T04:29:32;21.00;99.90
13416;DHT22;6779;50.150;8.680;2022-08-19T04:31:59;21.00;99.90
13416;DHT22;6779;50.150;8.680;2022-08-19T04:34:27;20.90;99.90
13416;DHT22;6779;50.150;8.680;2022-08-19T04:36:55;20.90;99.90
13416;DHT22;6779;50.150;8.680;2022-08-19T04:39:24;20.90;99.90
13416;DHT22;6779;50.150;8.680;2022-08-19T04:42:10;20.90;99.90
13416;DHT22;6779;50.150;8.680;2022-08-19T04:44:54;20.90;99.90
13416;DHT22;6779;50.150;8.680;2022-08-19T04:47:20;20.90;99.90
13416;DHT22;6779;50.150;8.680;2022-08-19T04:49:45;20.90;99.90
13416;DHT22;6779;50.150;8.680;2022-08-19T04:52:11;20.90;99.90
13416;DHT22;6779;50.150;8.680;2022-08-19T04:54:37;21.00;99.90
13416;DHT22;6779;50.150;8.680;2022-08-19T04:57:02;21.00;99.90
13416;DHT22;6779;50.150;8.680;2022-08-19T04:59:31;21.00;99.90
13416;DHT22;6779;50.150;8.680;2022-08-19T05:01:57;21.00;99.90
13416;DHT22;6779;50.150;8.680;2022-08-19T05:04:23;21.00;99.90
13416;DHT22;6779;50.150;8.680;2022-08-19T05:06:49;21.10;99.90
13416;DHT22;6779;50.150;8.680;2022-08-19T05:09:16;21.10;99.90
13416;DHT22;6779;50.150;8.680;2022-08-19T05:11:42;21.10;99.90
13416;DHT22;6779;50.150;8.680;2022-08-19T05:14:09;21.10;99.90
13416;DHT22;6779;50.150;8.680;2022-08-19T05:16:37;21.20;99.90
13416;DHT22;6779;50.150;8.680;2022-08-19T05:19:03;21.20;99.90
13416;DHT22;6779;50.150;8.680;2022-08-19T05:21:47;21.20;99.90
13416;DHT22;6779;50.150;8.680;2022-08-19T05:24:31;21.20;99.90
13416;DHT22;6779;50.150;8.680;2022-08-19T05:26:59;21.20;99.90
13416;DHT22;6779;50.150;8.680;2022-08-19T05:29:27;21.30;99.90
13416;DHT22;6779;50.150;8.680;2022-08-19T05:31:54;21.30;99.90
13416;DHT22;6779;50.150;8.680;2022-08-19T05:34:21;21.40;97.30
13416;DHT22;6779;50.150;8.680;2022-08-19T05:36:48;21.40;90.00
13416;DHT22;6779;50.150;8.680;2022-08-19T05:39:17;21.40;99.90
13416;DHT22;6779;50.150;8.680;2022-08-19T05:41:45;21.50;91.40
13416;DHT22;6779;50.150;8.680;2022-08-19T05:44:12;21.50;94.30
13416;DHT22;6779;50.150;8.680;2022-08-19T05:46:38;21.60;81.60
13416;DHT22;6779;50.150;8.680;2022-08-19T05:49:05;21.60;47.60
13416;DHT22;6779;50.150;8.680;2022-08-19T05:51:33;21.60;56.50
13416;DHT22;6779;50.150;8.680;2022-08-19T05:54:00;21.60;92.00
13416;DHT22;6779;50.150;8.680;2022-08-19T05:56:26;21.70;73.50
13416;DHT22;6779;50.150;8.680;2022-08-19T05:58:51;21.70;43.80
13416;DHT22;6779;50.150;8.680;2022-08-19T06:01:18;21.70;43.00
13416;DHT22;6779;50.150;8.680;2022-08-19T06:03:45;21.70;45.70
13416;DHT22;6779;50.150;8.680;2022-08-19T06:06:12;21.70;48.80
13416;DHT22;6779;50.150;8.680;2022-08-19T06:08:40;21.80;20.30
13416;DHT22;6779;50.150;8.680;2022-08-19T06:11:24;21.80;15.20
13416;DHT22;6779;50.150;8.680;2022-08-19T06:13:52;21.90;9.40
13416;DHT22;6779;50.150;8.680;2022-08-19T06:16:19;21.90;5.80
13416;DHT22;6779;50.150;8.680;2022-08-19T06:18:51;21.90;1.00
13416;DHT22;6779;50.150;8.680;2022-08-19T06:21:23;22.00;1.00
13416;DHT22;6779;50.150;8.680;2022-08-19T06:23:49;22.00;1.00
13416;DHT22;6779;50.150;8.680;2022-08-19T06:26:18;22.00;1.00
13416;DHT22;6779;50.150;8.680;2022-08-19T06:28:44;22.10;1.00
13416;DHT22;6779;50.150;8.680;2022-08-19T06:31:15;22.10;1.00
13416;DHT22;6779;50.150;8.680;2022-08-19T06:33:42;22.20;1.00
13416;DHT22;6779;50.150;8.680;2022-08-19T06:36:15;22.20;1.00
13416;DHT22;6779;50.150;8.680;2022-08-19T06:38:41;22.20;1.00
13416;DHT22;6779;50.150;8.680;2022-08-19T06:41:07;22.30;1.00
13416;DHT22;6779;50.150;8.680;2022-08-19T06:43:33;22.30;1.00
13416;DHT22;6779;50.150;8.680;2022-08-19T06:45:59;22.30;1.00
13416;DHT22;6779;50.150;8.680;2022-08-19T06:48:26;22.40;1.00
13416;DHT22;6779;50.150;8.680;2022-08-19T06:50:51;22.40;1.00
13416;DHT22;6779;50.150;8.680;2022-08-19T06:53:17;22.40;1.00
13416;DHT22;6779;50.150;8.680;2022-08-19T06:55:45;22.50;1.00
13416;DHT22;6779;50.150;8.680;2022-08-19T06:58:10;22.50;1.00
13416;DHT22;6779;50.150;8.680;2022-08-19T07:00:36;22.50;1.00
13416;DHT22;6779;50.150;8.680;2022-08-19T07:03:02;22.50;1.00
13416;DHT22;6779;50.150;8.680;2022-08-19T07:05:28;22.60;1.00
13416;DHT22;6779;50.150;8.680;2022-08-19T07:07:53;22.50;1.00
13416;DHT22;6779;50.150;8.680;2022-08-19T07:10:19;22.50;1.00
13416;DHT22;6779;50.150;8.680;2022-08-19T07:12:45;22.60;1.00
13416;DHT22;6779;50.150;8.680;2022-08-19T07:15:12;22.60;1.00
13416;DHT22;6779;50.150;8.680;2022-08-19T07:17:38;22.60;1.00
13416;DHT22;6779;50.150;8.680;2022-08-19T07:20:06;22.60;1.00
13416;DHT22;6779;50.150;8.680;2022-08-19T07:22:34;22.70;1.00
13416;DHT22;6779;50.150;8.680;2022-08-19T07:25:00;22.70;1.00
13416;DHT22;6779;50.150;8.680;2022-08-19T07:27:28;22.70;1.00
13416;DHT22;6779;50.150;8.680;2022-08-19T07:29:53;22.70;1.00
13416;DHT22;6779;50.150;8.680;2022-08-19T07:32:19;22.70;1.00
13416;DHT22;6779;50.150;8.680;2022-08-19T07:34:44;22.80;1.00
13416;DHT22;6779;50.150;8.680;2022-08-19T07:37:10;22.90;1.00
13416;DHT22;6779;50.150;8.680;2022-08-19T07:39:37;23.10;1.00
13416;DHT22;6779;50.150;8.680;2022-08-19T07:42:06;23.10;1.00
13416;DHT22;6779;50.150;8.680;2022-08-19T07:44:32;23.20;1.00
13416;DHT22;6779;50.150;8.680;2022-08-19T07:46:59;23.30;1.00
13416;DHT22;6779;50.150;8.680;2022-08-19T07:49:25;23.40;1.00
13416;DHT22;6779;50.150;8.680;2022-08-19T07:51:57;23.50;1.00
13416;DHT22;6779;50.150;8.680;2022-08-19T07:54:24;23.70;1.00
13416;DHT22;6779;50.150;8.680;2022-08-19T07:56:50;23.70;1.00
13416;DHT22;6779;50.150;8.680;2022-08-19T07:59:17;23.80;99.90
13416;DHT22;6779;50.150;8.680;2022-08-19T08:01:43;23.90;99.90
13416;DHT22;6779;50.150;8.680;2022-08-19T08:04:09;24.00;99.90
13416;DHT22;6779;50.150;8.680;2022-08-19T08:06:53;24.10;99.90
13416;DHT22;6779;50.150;8.680;2022-08-19T08:09:41;24.20;99.90
13416;DHT22;6779;50.150;8.680;2022-08-19T08:12:11;24.40;99.90
13416;DHT22;6779;50.150;8.680;2022-08-19T08:14:41;24.50;99.90
13416;DHT22;6779;50.150;8.680;2022-08-19T08:17:08;24.60;99.90
13416;DHT22;6779;50.150;8.680;2022-08-19T08:19:34;24.70;99.90
13416;DHT22;6779;50.150;8.680;2022-08-19T08:22:01;24.80;99.90
13416;DHT22;6779;50.150;8.680;2022-08-19T08:24:28;25.00;99.90
13416;DHT22;6779;50.150;8.680;2022-08-19T08:26:56;25.20;99.90
13416;DHT22;6779;50.150;8.680;2022-08-19T08:29:23;25.30;99.90
13416;DHT22;6779;50.150;8.680;2022-08-19T08:31:48;25.40;99.90
13416;DHT22;6779;50.150;8.680;2022-08-19T08:34:14;25.30;99.90
13416;DHT22;6779;50.150;8.680;2022-08-19T08:36:43;25.30;99.90
13416;DHT22;6779;50.150;8.680;2022-08-19T08:39:15;25.40;99.90
13416;DHT22;6779;50.150;8.680;2022-08-19T08:44:42;25.50;99.90
13416;DHT22;6779;50.150;8.680;2022-08-19T08:47:16;25.60;99.90
13416;DHT22;6779;50.150;8.680;2022-08-19T08:49:51;25.70;99.90
13416;DHT22;6779;50.150;8.680;2022-08-19T08:54:55;26.00;99.90
13416;DHT22;6779;50.150;8.680;2022-08-19T09:00:18;26.30;99.90
13416;DHT22;6779;50.150;8.680;2022-08-19T09:02:45;26.50;99.90
13416;DHT22;6779;50.150;8.680;2022-08-19T09:05:11;26.70;99.90
13416;DHT22;6779;50.150;8.680;2022-08-19T09:07:41;26.90;99.90
13416;DHT22;6779;50.150;8.680;2022-08-19T09:10:39;26.90;99.90
13416;DHT22;6779;50.150;8.680;2022-08-19T09:15:48;27.50;99.90
13416;DHT22;6779;50.150;8.680;2022-08-19T09:18:17;28.10;99.90
13416;DHT22;6779;50.150;8.680;2022-08-19T09:20:45;27.40;99.90
13416;DHT22;6779;50.150;8.680;2022-08-19T09:23:12;26.90;99.90
13416;DHT22;6779;50.150;8.680;2022-08-19T09:25:37;26.50;99.90
13416;DHT22;6779;50.150;8.680;2022-08-19T09:28:05;26.70;99.90
13416;DHT22;6779;50.150;8.680;2022-08-19T09:30:39;27.10;99.90
13416;DHT22;6779;50.150;8.680;2022-08-19T09:33:05;27.10;99.90
13416;DHT22;6779;50.150;8.680;2022-08-19T09:35:31;26.80;99.90
13416;DHT22;6779;50.150;8.680;2022-08-19T09:37:58;26.80;99.90
13416;DHT22;6779;50.150;8.680;2022-08-19T09:40:24;27.50;99.90
13416;DHT22;6779;50.150;8.680;2022-08-19T09:42:51;29.00;99.90
13416;DHT22;6779;50.150;8.680;2022-08-19T09:45:20;30.60;99.90
13416;DHT22;6779;50.150;8.680;2022-08-19T09:47:47;31.70;99.90
13416;DHT22;6779;50.150;8.680;2022-08-19T09:50:14;32.50;99.90
13416;DHT22;6779;50.150;8.680;2022-08-19T09:52:40;32.90;99.90
13416;DHT22;6779;50.150;8.680;2022-08-19T09:55:09;32.90;99.90
13416;DHT22;6779;50.150;8.680;2022-08-19T09:57:35;32.40;99.90
13416;DHT22;6779;50.150;8.680;2022-08-19T10:00:02;31.90;99.90
13416;DHT22;6779;50.150;8.680;2022-08-19T10:02:27;31.40;99.90
13416;DHT22;6779;50.150;8.680;2022-08-19T10:04:53;31.00;99.90
13416;DHT22;6779;50.150;8.680;2022-08-19T10:07:37;31.80;99.90
13416;DHT22;6779;50.150;8.680;2022-08-19T10:10:05;32.80;99.90
13416;DHT22;6779;50.150;8.680;2022-08-19T10:12:32;31.90;99.90
13416;DHT22;6779;50.150;8.680;2022-08-19T10:14:59;30.60;99.90
13416;DHT22;6779;50.150;8.680;2022-08-19T10:17:25;29.70;99.90
13416;DHT22;6779;50.150;8.680;2022-08-19T10:19:51;28.90;99.90
13416;DHT22;6779;50.150;8.680;2022-08-19T10:22:18;29.40;99.90
13416;DHT22;6779;50.150;8.680;2022-08-19T10:24:45;30.60;99.90
13416;DHT22;6779;50.150;8.680;2022-08-19T10:27:11;31.90;99.90
13416;DHT22;6779;50.150;8.680;2022-08-19T10:29:38;32.70;99.90
13416;DHT22;6779;50.150;8.680;2022-08-19T10:32:06;33.20;99.90
13416;DHT22;6779;50.150;8.680;2022-08-19T10:34:34;32.30;99.90
13416;DHT22;6779;50.150;8.680;2022-08-19T10:37:02;31.40;99.90
13416;DHT22;6779;50.150;8.680;2022-08-19T10:39:31;31.00;99.90
13416;DHT22;6779;50.150;8.680;2022-08-19T10:41:57;32.00;99.90
13416;DHT22;6779;50.150;8.680;2022-08-19T10:44:23;33.50;99.90
13416;DHT22;6779;50.150;8.680;2022-08-19T10:46:50;34.30;99.90
13416;DHT22;6779;50.150;8.680;2022-08-19T10:49:16;34.00;99.90
13416;DHT22;6779;50.150;8.680;2022-08-19T10:51:42;33.70;99.90
13416;DHT22;6779;50.150;8.680;2022-08-19T10:54:26;33.60;99.90
13416;DHT22;6779;50.150;8.680;2022-08-19T10:57:13;34.60;99.90
13416;DHT22;6779;50.150;8.680;2022-08-19T10:59:39;35.40;99.90
13416;DHT22;6779;50.150;8.680;2022-08-19T11:02:07;35.80;99.90
13416;DHT22;6779;50.150;8.680;2022-08-19T11:04:36;35.10;99.90
13416;DHT22;6779;50.150;8.680;2022-08-19T11:07:02;33.80;99.90
13416;DHT22;6779;50.150;8.680;2022-08-19T11:09:28;31.90;99.90
13416;DHT22;6779;50.150;8.680;2022-08-19T11:11:54;30.80;99.90
13416;DHT22;6779;50.150;8.680;2022-08-19T11:14:22;30.60;99.90
13416;DHT22;6779;50.150;8.680;2022-08-19T11:16:49;32.00;99.90
13416;DHT22;6779;50.150;8.680;2022-08-19T11:19:16;33.30;99.90
13416;DHT22;6779;50.150;8.680;2022-08-19T11:21:46;34.50;99.90
13416;DHT22;6779;50.150;8.680;2022-08-19T11:24:18;35.30;99.90
13416;DHT22;6779;50.150;8.680;2022-08-19T11:26:45;36.00;99.90
13416;DHT22;6779;50.150;8.680;2022-08-19T11:29:12;36.10;99.90
13416;DHT22;6779;50.150;8.680;2022-08-19T11:31:40;34.70;99.90
13416;DHT22;6779;50.150;8.680;2022-08-19T11:34:09;34.10;99.90
13416;DHT22;6779;50.150;8.680;2022-08-19T11:36:37;34.00;99.90
13416;DHT22;6779;50.150;8.680;2022-08-19T11:39:05;33.80;99.90
13416;DHT22;6779;50.150;8.680;2022-08-19T11:41:31;33.80;99.90
13416;DHT22;6779;50.150;8.680;2022-08-19T11:43:57;33.60;99.90
13416;DHT22;6779;50.150;8.680;2022-08-19T11:46:24;33.60;99.90
13416;DHT22;6779;50.150;8.680;2022-08-19T11:48:50;32.90;99.90
13416;DHT22;6779;50.150;8.680;2022-08-19T11:51:22;32.80;99.90
13416;DHT22;6779;50.150;8.680;2022-08-19T11:53:50;32.80;99.90
13416;DHT22;6779;50.150;8.680;2022-08-19T11:56:16;32.30;99.90
13416;DHT22;6779;50.150;8.680;2022-08-19T11:58:42;31.80;99.90
13416;DHT22;6779;50.150;8.680;2022-08-19T12:01:09;31.10;99.90
13416;DHT22;6779;50.150;8.680;2022-08-19T12:03:37;30.50;99.90
13416;DHT22;6779;50.150;8.680;2022-08-19T12:06:14;30.40;99.90
13416;DHT22;6779;50.150;8.680;2022-08-19T12:08:41;31.00;99.90
13416;DHT22;6779;50.150;8.680;2022-08-19T12:11:07;31.50;99.90
13416;DHT22;6779;50.150;8.680;2022-08-19T12:13:33;31.80;99.90
13416;DHT22;6779;50.150;8.680;2022-08-19T12:16:00;32.10;99.90
13416;DHT22;6779;50.150;8.680;2022-08-19T12:18:27;31.60;99.90
13416;DHT22;6779;50.150;8.680;2022-08-19T12:20:53;31.10;99.90
13416;DHT22;6779;50.150;8.680;2022-08-19T12:23:22;30.30;99.90
13416;DHT22;6779;50.150;8.680;2022-08-19T12:25:49;30.10;99.90
13416;DHT22;6779;50.150;8.680;2022-08-19T12:28:19;30.00;99.90
13416;DHT22;6779;50.150;8.680;2022-08-19T12:30:46;30.30;99.90
13416;DHT22;6779;50.150;8.680;2022-08-19T12:33:12;30.70;99.90
13416;DHT22;6779;50.150;8.680;2022-08-19T12:35:43;31.20;99.90
13416;DHT22;6779;50.150;8.680;2022-08-19T12:38:11;31.20;99.90
13416;DHT22;6779;50.150;8.680;2022-08-19T12:40:37;31.00;99.90
13416;DHT22;6779;50.150;8.680;2022-08-19T12:43:06;30.70;99.90
13416;DHT22;6779;50.150;8.680;2022-08-19T12:45:31;30.50;99.90
13416;DHT22;6779;50.150;8.680;2022-08-19T12:47:57;30.50;99.90
13416;DHT22;6779;50.150;8.680;2022-08-19T12:50:23;30.70;99.90
13416;DHT22;6779;50.150;8.680;2022-08-19T12:52:49;30.50;99.90
13416;DHT22;6779;50.150;8.680;2022-08-19T12:55:15;30.80;99.90
13416;DHT22;6779;50.150;8.680;2022-08-19T12:57:40;30.60;99.90
13416;DHT22;6779;50.150;8.680;2022-08-19T13:00:15;30.20;99.90
13416;DHT22;6779;50.150;8.680;2022-08-19T13:02:44;30.00;99.90
13416;DHT22;6779;50.150;8.680;2022-08-19T13:05:14;29.60;99.90
13416;DHT22;6779;50.150;8.680;2022-08-19T13:07:41;29.40;99.90
13416;DHT22;6779;50.150;8.680;2022-08-19T13:10:11;29.30;99.90
13416;DHT22;6779;50.150;8.680;2022-08-19T13:12:37;29.10;99.90
13416;DHT22;6779;50.150;8.680;2022-08-19T13:15:04;29.00;99.90
13416;DHT22;6779;50.150;8.680;2022-08-19T13:17:30;28.90;99.90
13416;DHT22;6779;50.150;8.680;2022-08-19T13:19:56;29.00;99.90
13416;DHT22;6779;50.150;8.680;2022-08-19T13:22:21;29.20;99.90
13416;DHT22;6779;50.150;8.680;2022-08-19T13:24:47;29.70;99.90
13416;DHT22;6779;50.150;8.680;2022-08-19T13:27:15;29.90;99.90
13416;DHT22;6779;50.150;8.680;2022-08-19T13:29:41;30.30;99.90
13416;DHT22;6779;50.150;8.680;2022-08-19T13:32:25;30.10;99.90
13416;DHT22;6779;50.150;8.680;2022-08-19T13:35:09;30.00;99.90
13416;DHT22;6779;50.150;8.680;2022-08-19T13:37:35;29.70;99.90
13416;DHT22;6779;50.150;8.680;2022-08-19T13:40:12;29.60;99.90
13416;DHT22;6779;50.150;8.680;2022-08-19T13:42:43;29.50;99.90
13416;DHT22;6779;50.150;8.680;2022-08-19T13:45:09;29.30;99.90
13416;DHT22;6779;50.150;8.680;2022-08-19T13:47:36;29.20;99.90
13416;DHT22;6779;50.150;8.680;2022-08-19T13:50:08;29.20;99.90
13416;DHT22;6779;50.150;8.680;2022-08-19T13:52:34;29.10;99.90
13416;DHT22;6779;50.150;8.680;2022-08-19T13:55:00;29.00;99.90
13416;DHT22;6779;50.150;8.680;2022-08-19T13:57:25;28.90;99.90
13416;DHT22;6779;50.150;8.680;2022-08-19T13:59:51;29.00;99.90
13416;DHT22;6779;50.150;8.680;2022-08-19T14:02:16;29.00;99.90
13416;DHT22;6779;50.150;8.680;2022-08-19T14:04:42;29.10;99.90
13416;DHT22;6779;50.150;8.680;2022-08-19T14:07:08;29.20;99.90
13416;DHT22;6779;50.150;8.680;2022-08-19T14:09:34;29.20;99.90
13416;DHT22;6779;50.150;8.680;2022-08-19T14:12:00;29.10;99.90
13416;DHT22;6779;50.150;8.680;2022-08-19T14:14:26;29.10;99.90
13416;DHT22;6779;50.150;8.680;2022-08-19T14:16:51;29.10;99.90
13416;DHT22;6779;50.150;8.680;2022-08-19T14:19:17;29.10;99.90
13416;DHT22;6779;50.150;8.680;2022-08-19T14:21:42;29.30;99.90
13416;DHT22;6779;50.150;8.680;2022-08-19T14:24:08;29.40;99.90
13416;DHT22;6779;50.150;8.680;2022-08-19T14:26:34;29.50;99.90
13416;DHT22;6779;50.150;8.680;2022-08-19T14:28:59;29.40;99.90
13416;DHT22;6779;50.150;8.680;2022-08-19T14:31:26;29.30;99.90
13416;DHT22;6779;50.150;8.680;2022-08-19T14:33:52;29.20;99.90
13416;DHT22;6779;50.150;8.680;2022-08-19T14:36:18;29.10;99.90
13416;DHT22;6779;50.150;8.680;2022-08-19T14:38:45;29.10;99.90
13416;DHT22;6779;50.150;8.680;2022-08-19T14:41:13;28.90;99.90
13416;DHT22;6779;50.150;8.680;2022-08-19T14:43:41;28.90;99.90
13416;DHT22;6779;50.150;8.680;2022-08-19T14:46:07;28.90;99.90
13416;DHT22;6779;50.150;8.680;2022-08-19T14:48:33;28.90;99.90
13416;DHT22;6779;50.150;8.680;2022-08-19T14:50:59;28.80;99.90
13416;DHT22;6779;50.150;8.680;2022-08-19T14:53:24;28.90;99.90
13416;DHT22;6779;50.150;8.680;2022-08-19T14:55:51;29.20;99.90
13416;DHT22;6779;50.150;8.680;2022-08-19T14:58:16;29.40;99.90
13416;DHT22;6779;50.150;8.680;2022-08-19T15:00:42;29.40;99.90
13416;DHT22;6779;50.150;8.680;2022-08-19T15:03:07;29.50;99.90
13416;DHT22;6779;50.150;8.680;2022-08-19T15:05:33;29.40;99.90
13416;DHT22;6779;50.150;8.680;2022-08-19T15:08:04;29.20;99.90
13416;DHT22;6779;50.150;8.680;2022-08-19T15:10:29;29.20;99.90
13416;DHT22;6779;50.150;8.680;2022-08-19T15:12:55;29.20;99.90
13416;DHT22;6779;50.150;8.680;2022-08-19T15:15:21;29.30;99.90
13416;DHT22;6779;50.150;8.680;2022-08-19T15:17:48;29.20;99.90
13416;DHT22;6779;50.150;8.680;2022-08-19T15:20:17;29.00;99.90
13416;DHT22;6779;50.150;8.680;2022-08-19T15:22:43;28.90;99.90
13416;DHT22;6779;50.150;8.680;2022-08-19T15:25:12;28.90;99.90
13416;DHT22;6779;50.150;8.680;2022-08-19T15:27:38;28.90;99.90
13416;DHT22;6779;50.150;8.680;2022-08-19T15:30:06;28.90;99.90
13416;DHT22;6779;50.150;8.680;2022-08-19T15:32:32;28.80;99.90
13416;DHT22;6779;50.150;8.680;2022-08-19T15:34:58;28.80;99.90
13416;DHT22;6779;50.150;8.680;2022-08-19T15:37:23;28.80;99.90
13416;DHT22;6779;50.150;8.680;2022-08-19T15:39:50;28.80;99.90
13416;DHT22;6779;50.150;8.680;2022-08-19T15:42:16;28.70;99.90
13416;DHT22;6779;50.150;8.680;2022-08-19T15:44:41;28.80;99.90
13416;DHT22;6779;50.150;8.680;2022-08-19T15:47:08;28.90;99.90
13416;DHT22;6779;50.150;8.680;2022-08-19T15:49:33;29.00;99.90
13416;DHT22;6779;50.150;8.680;2022-08-19T15:51:59;29.10;99.90
13416;DHT22;6779;50.150;8.680;2022-08-19T15:54:26;29.20;99.90
13416;DHT22;6779;50.150;8.680;2022-08-19T15:56:51;29.20;99.90
13416;DHT22;6779;50.150;8.680;2022-08-19T15:59:37;29.20;99.90
13416;DHT22;6779;50.150;8.680;2022-08-19T16:02:24;29.10;99.90
13416;DHT22;6779;50.150;8.680;2022-08-19T16:05:11;29.10;99.90
13416;DHT22;6779;50.150;8.680;2022-08-19T16:07:56;29.10;99.90